MSC Levina — 3FJR8 — position and weather

sailwx.info

Track history (hours):
 
Tides and Currents Weather Stations Pressure Air Temp Water Temp Dewpoint Dewpoint Depression Visibility Wind Speed Wind Dir Waves Ship Positions

MSC Levina

Last reported at 2015-Apr-20 21:16 UTC. Time now 2015-Apr-21 13:14 UTC.
Position N 35°58' W 005°35'.

Length 227.6 m; beam 32.2 m; draft 12.1 m.

Type: Cargo ship. MMSI: 355609000.

Date/timePositionNaut miles runAvg speedWind from/ knotsBaromVisibWave heightAir tempDewpointWater temp
2015-Apr-20 21:16N 35°58' W 005°35'1115.6
2015-Apr-20 20:34N 36°01' W 005°22'21817.7
2015-Apr-20 08:11N 37°12' W 001°04'1218.3
2015-Apr-20 07:33N 37°20' W 000°53'1818.4
2015-Apr-20 06:33N 37°33' W 000°36'1817.8
2015-Apr-20 05:33N 37°44' W 000°19'1414.4
2015-Apr-20 04:33N 37°57' W 000°12'1918.4
2015-Apr-20 03:32N 38°14' W 000°00'1818.3
2015-Apr-20 02:33N 38°29' E 000°12'6215.3
2015-Apr-19 22:29N 39°26' W 000°18'1 0.5
2015-Apr-19 21:26N 39°26' W 000°19'0 0.0
2015-Apr-19 20:29N 39°26' W 000°19'0 0.0
2015-Apr-19 19:32N 39°26' W 000°19'0 0.0
2015-Apr-19 18:32N 39°26' W 000°19'0 0.0
2015-Apr-19 17:32N 39°26' W 000°19'0 0.0
2015-Apr-19 16:26N 39°26' W 000°19'0 0.0
2015-Apr-19 15:32N 39°26' W 000°19'0 0.0
2015-Apr-19 14:20N 39°26' W 000°19'0 0.0
2015-Apr-19 13:32N 39°26' W 000°19'0 0.0
2015-Apr-19 12:32N 39°26' W 000°19'0 0.0
2015-Apr-19 11:32N 39°26' W 000°19'0 0.0
2015-Apr-19 10:29N 39°26' W 000°19'0 0.0
2015-Apr-19 09:32N 39°26' W 000°19'0 0.0
2015-Apr-19 08:32N 39°26' W 000°19'0 0.0
2015-Apr-19 07:32N 39°26' W 000°19'0 0.0
2015-Apr-19 06:29N 39°26' W 000°19'0 0.0
2015-Apr-19 05:20N 39°26' W 000°19'0 0.0
2015-Apr-19 04:32N 39°26' W 000°19'0 0.0
2015-Apr-19 03:32N 39°26' W 000°19'0 0.0
2015-Apr-19 02:29N 39°26' W 000°19'0 0.0
2015-Apr-19 01:32N 39°26' W 000°19'0 0.0
2015-Apr-19 00:29N 39°26' W 000°19'1 0.6
2015-Apr-18 23:33N 39°26' W 000°20'0 0.0
2015-Apr-18 22:33N 39°26' W 000°20'0 0.0
2015-Apr-18 21:33N 39°26' W 000°20'0 0.0
2015-Apr-18 20:33N 39°26' W 000°20'0 0.0
2015-Apr-18 19:33N 39°26' W 000°20'0 0.0
2015-Apr-18 18:33N 39°26' W 000°20'0 0.0
2015-Apr-18 17:33N 39°26' W 000°20'0 0.0
2015-Apr-18 16:33N 39°26' W 000°20'0 0.0
2015-Apr-18 15:33N 39°26' W 000°20'0 0.0
2015-Apr-18 14:33N 39°26' W 000°20'0 0.0
2015-Apr-18 13:33N 39°26' W 000°20'0 0.0
2015-Apr-18 12:33N 39°26' W 000°20'0 0.0
2015-Apr-18 11:33N 39°26' W 000°20'0 0.0
2015-Apr-18 10:30N 39°26' W 000°20'0 0.0
2015-Apr-18 09:33N 39°26' W 000°20'4 4.4
2015-Apr-18 08:33N 39°25' W 000°14'8 7.4
2015-Apr-18 07:29N 39°26' W 000°04'5337.6
2015-Apr-18 06:04N 39°48' E 000°59'1833.0
2015-Apr-18 05:31N 39°41' E 000°37'1919.5
2015-Apr-18 04:33N 39°48' E 001°00'1919.5
2015-Apr-18 03:33N 39°58' E 001°22'2019.6
2015-Apr-18 02:33N 40°07' E 001°45'2019.6
2015-Apr-18 01:33N 40°16' E 002°07'2019.7
2015-Apr-18 00:33N 40°26' E 002°30'2019.2
2015-Apr-17 23:32N 40°36' E 002°52'1818.6
2015-Apr-17 22:33N 40°45' E 003°13'1717.2
2015-Apr-17 21:33N 40°53' E 003°33'1919.1
2015-Apr-17 20:33N 41°03' E 003°55'2319.1
2015-Apr-17 19:21N 41°14' E 004°21'1518.5
2015-Apr-17 18:33N 41°21' E 004°39'2119.3
2015-Apr-17 17:26N 41°31' E 005°04'1718.6
2015-Apr-17 16:32N 41°40' E 005°23'2718.7
2015-Apr-17 15:06N 41°53' E 005°54'14118.7
2015-Apr-17 07:33N 43°01' E 008°41'1918.7
2015-Apr-17 06:34N 43°11' E 009°03'1818.1
2015-Apr-17 05:33N 43°20' E 009°25'1818.0
2015-Apr-17 04:33N 43°28' E 009°47'1717.0
2015-Apr-17 03:33N 43°31' E 010°10'7 6.8
2015-Apr-17 02:33N 43°34' E 010°18'0 0.3
2015-Apr-17 01:33N 43°34' E 010°18'0 0.0
2015-Apr-17 00:33N 43°34' E 010°18'0 0.0
2015-Apr-16 23:33N 43°34' E 010°18'0 0.0
2015-Apr-16 22:33N 43°34' E 010°18'0 0.0
2015-Apr-16 21:33N 43°34' E 010°18'0 0.0
2015-Apr-16 20:33N 43°34' E 010°18'0 0.0
2015-Apr-16 19:33N 43°34' E 010°18'6 5.7
2015-Apr-16 18:33N 43°30' E 010°13'7 6.7
2015-Apr-16 17:33N 43°30' E 010°04'1515.2
2015-Apr-16 16:33N 43°41' E 009°50'1818.5
2015-Apr-16 15:33N 43°53' E 009°31'1818.2
2015-Apr-16 14:33N 44°04' E 009°10'1918.7
2015-Apr-16 13:33N 44°16' E 008°51'9 9.0
2015-Apr-16 12:32N 44°25' E 008°47'0 0.2
2015-Apr-16 11:31N 44°25' E 008°47'0 0.0
2015-Apr-16 10:31N 44°25' E 008°47'0 0.0
2015-Apr-16 09:31N 44°25' E 008°47'0 0.0
2015-Apr-16 08:16N 44°25' E 008°47'0 0.0
2015-Apr-16 07:25N 44°25' E 008°47'0 0.0
2015-Apr-16 06:31N 44°25' E 008°47'0 0.0
2015-Apr-16 05:31N 44°25' E 008°47'0 0.0
2015-Apr-16 04:31N 44°25' E 008°47'0 0.0
2015-Apr-16 03:31N 44°25' E 008°47'0 0.0
2015-Apr-16 02:31N 44°25' E 008°47'0 0.0
2015-Apr-16 01:32N 44°25' E 008°47'0 0.0
2015-Apr-16 00:33N 44°25' E 008°47'0 0.0
2015-Apr-15 23:33N 44°25' E 008°47'0 0.0
2015-Apr-15 22:33N 44°25' E 008°47'3 3.1
2015-Apr-15 21:33N 44°23' E 008°44'2 2.5
2015-Apr-15 20:33N 44°21' E 008°42'6 6.5
2015-Apr-15 19:33N 44°16' E 008°37'1717.4
2015-Apr-15 18:33N 44°01' E 008°24'1918.8
2015-Apr-15 17:33N 43°46' E 008°07'1919.0
2015-Apr-15 16:34N 43°34' E 007°47'1918.9
2015-Apr-15 15:33N 43°22' E 007°28'1818.2
2015-Apr-15 14:33N 43°10' E 007°08'1817.8
2015-Apr-15 13:34N 42°59' E 006°50'1717.5
2015-Apr-15 12:33N 42°50' E 006°29'1818.0
2015-Apr-15 11:33N 42°51' E 006°05'1616.3
2015-Apr-15 10:34N 42°55' E 005°44'1918.4
2015-Apr-15 09:33N 43°03' E 005°21'1717.1
2015-Apr-15 08:33N 43°12' E 005°01'1312.6
2015-Apr-15 07:33N 43°24' E 004°55'3 3.4
2015-Apr-15 06:33N 43°25' E 004°50'0 0.0
2015-Apr-15 05:33N 43°25' E 004°50'0 0.0
2015-Apr-15 04:33N 43°25' E 004°50'0 0.0
2015-Apr-15 03:33N 43°25' E 004°50'0 0.0
2015-Apr-15 02:30N 43°25' E 004°50'0 0.0
2015-Apr-15 01:33N 43°25' E 004°50'0 0.0
2015-Apr-15 00:33N 43°25' E 004°50'0 0.0
2015-Apr-14 23:33N 43°25' E 004°50'0 0.0
2015-Apr-14 22:33N 43°25' E 004°50'0 0.0
2015-Apr-14 21:34N 43°25' E 004°50'0 0.0
2015-Apr-14 20:33N 43°25' E 004°50'0 0.0
2015-Apr-14 19:33N 43°25' E 004°50'0 0.0
2015-Apr-14 18:33N 43°25' E 004°50'0 0.4
2015-Apr-14 17:33N 43°25' E 004°51'8 8.0
2015-Apr-14 16:33N 43°20' E 004°59'1010.0
2015-Apr-14 15:33N 43°10' E 005°03'1716.4
2015-Apr-14 14:30N 42°54' E 005°12'1919.5
2015-Apr-14 13:30N 42°37' E 005°26'1919.5
2015-Apr-14 12:33N 42°21' E 005°38'2019.4
2015-Apr-14 11:32N 42°04' E 005°51'2319.4
2015-Apr-14 10:20N 41°43' E 006°06'1418.7
2015-Apr-14 09:33N 41°31' E 006°15'1919.4
2015-Apr-14 08:33N 41°13' E 006°27'1919.4
2015-Apr-14 07:33N 40°56' E 006°39'1919.3
2015-Apr-14 06:33N 40°39' E 006°51'2019.3
2015-Apr-14 05:31N 40°22' E 007°03'1919.4
2015-Apr-14 04:33N 40°05' E 007°15'2319.3
2015-Apr-14 03:21N 39°44' E 007°29'5419.3
2015-Apr-14 00:33N 38°57' E 008°01'8125.7
2015-Apr-13 21:24N 38°06' E 009°22'18717.2
2015-Apr-13 10:30N 36°48' E 012°57'1818.9
2015-Apr-13 09:33N 36°44' E 013°18'2318.8
2015-Apr-13 08:19N 36°37' E 013°46'1419.1
2015-Apr-13 07:33N 36°33' E 014°04'1918.9
2015-Apr-13 06:33N 36°28' E 014°26'44613.5
2015-Apr-11 21:22N 37°14' E 023°41'1315.8
2015-Apr-11 20:33N 37°26' E 023°42'1615.8
2015-Apr-11 19:34N 37°42' E 023°40'1414.3
2015-Apr-11 18:34N 37°56' E 023°36'1 1.3
2015-Apr-11 17:25N 37°57' E 023°36'0 0.0
2015-Apr-11 16:31N 37°57' E 023°36'0 0.0
2015-Apr-11 15:31N 37°57' E 023°36'0 0.0
2015-Apr-11 14:31N 37°57' E 023°36'0 0.0
2015-Apr-11 13:31N 37°57' E 023°36'0 0.0
2015-Apr-11 12:25N 37°57' E 023°36'0 0.0
2015-Apr-11 11:31N 37°57' E 023°36'0 0.0
2015-Apr-11 10:31N 37°57' E 023°36'0 0.0
2015-Apr-11 09:31N 37°57' E 023°36'0 0.0
2015-Apr-11 08:31N 37°57' E 023°36'0 0.0
2015-Apr-11 07:31N 37°57' E 023°36'0 0.0
2015-Apr-11 06:31N 37°57' E 023°36'0 0.0
2015-Apr-11 05:31N 37°57' E 023°36'0 0.0
2015-Apr-11 04:31N 37°57' E 023°36'0 0.0
2015-Apr-11 03:31N 37°57' E 023°36'0 0.0
2015-Apr-11 02:31N 37°57' E 023°36'0 0.0
2015-Apr-11 01:31N 37°57' E 023°36'0 0.0
2015-Apr-11 00:31N 37°57' E 023°36'0 0.0
2015-Apr-10 23:31N 37°57' E 023°36'0 0.0
2015-Apr-10 22:31N 37°57' E 023°36'0 0.0
2015-Apr-10 21:31N 37°57' E 023°36'  
Track history (hours):
 
Tides and Currents Weather Stations Pressure Air Temp Water Temp Dewpoint Dewpoint Depression Visibility Wind Speed Wind Dir Waves Ship Positions

MSC Levina

Last reported at 2015-Apr-20 21:16 UTC. Time now 2015-Apr-21 13:14 UTC.
Position N 35°58' W 005°35'.

Length 227.6 m; beam 32.2 m; draft 12.1 m.

Type: Cargo ship. MMSI: 355609000.

Date/timePositionNaut miles runAvg speedWind from/ knotsBaromVisibWave heightAir tempDewpointWater temp
2015-Apr-20 21:16N 35°58' W 005°35'1115.6
2015-Apr-20 20:34N 36°01' W 005°22'21817.7
2015-Apr-20 08:11N 37°12' W 001°04'1218.3
2015-Apr-20 07:33N 37°20' W 000°53'1818.4
2015-Apr-20 06:33N 37°33' W 000°36'1817.8
2015-Apr-20 05:33N 37°44' W 000°19'1414.4
2015-Apr-20 04:33N 37°57' W 000°12'1918.4
2015-Apr-20 03:32N 38°14' W 000°00'1818.3
2015-Apr-20 02:33N 38°29' E 000°12'6215.3
2015-Apr-19 22:29N 39°26' W 000°18'1 0.5
2015-Apr-19 21:26N 39°26' W 000°19'0 0.0
2015-Apr-19 20:29N 39°26' W 000°19'0 0.0
2015-Apr-19 19:32N 39°26' W 000°19'0 0.0
2015-Apr-19 18:32N 39°26' W 000°19'0 0.0
2015-Apr-19 17:32N 39°26' W 000°19'0 0.0
2015-Apr-19 16:26N 39°26' W 000°19'0 0.0
2015-Apr-19 15:32N 39°26' W 000°19'0 0.0
2015-Apr-19 14:20N 39°26' W 000°19'0 0.0
2015-Apr-19 13:32N 39°26' W 000°19'0 0.0
2015-Apr-19 12:32N 39°26' W 000°19'0 0.0
2015-Apr-19 11:32N 39°26' W 000°19'0 0.0
2015-Apr-19 10:29N 39°26' W 000°19'0 0.0
2015-Apr-19 09:32N 39°26' W 000°19'0 0.0
2015-Apr-19 08:32N 39°26' W 000°19'0 0.0
2015-Apr-19 07:32N 39°26' W 000°19'0 0.0
2015-Apr-19 06:29N 39°26' W 000°19'0 0.0
2015-Apr-19 05:20N 39°26' W 000°19'0 0.0
2015-Apr-19 04:32N 39°26' W 000°19'0 0.0
2015-Apr-19 03:32N 39°26' W 000°19'0 0.0
2015-Apr-19 02:29N 39°26' W 000°19'0 0.0
2015-Apr-19 01:32N 39°26' W 000°19'0 0.0
2015-Apr-19 00:29N 39°26' W 000°19'1 0.6
2015-Apr-18 23:33N 39°26' W 000°20'0 0.0
2015-Apr-18 22:33N 39°26' W 000°20'0 0.0
2015-Apr-18 21:33N 39°26' W 000°20'0 0.0
2015-Apr-18 20:33N 39°26' W 000°20'0 0.0
2015-Apr-18 19:33N 39°26' W 000°20'0 0.0
2015-Apr-18 18:33N 39°26' W 000°20'0 0.0
2015-Apr-18 17:33N 39°26' W 000°20'0 0.0
2015-Apr-18 16:33N 39°26' W 000°20'0 0.0
2015-Apr-18 15:33N 39°26' W 000°20'0 0.0
2015-Apr-18 14:33N 39°26' W 000°20'0 0.0
2015-Apr-18 13:33N 39°26' W 000°20'0 0.0
2015-Apr-18 12:33N 39°26' W 000°20'0 0.0
2015-Apr-18 11:33N 39°26' W 000°20'0 0.0
2015-Apr-18 10:30N 39°26' W 000°20'0 0.0
2015-Apr-18 09:33N 39°26' W 000°20'4 4.4
2015-Apr-18 08:33N 39°25' W 000°14'8 7.4
2015-Apr-18 07:29N 39°26' W 000°04'5337.6
2015-Apr-18 06:04N 39°48' E 000°59'1833.0
2015-Apr-18 05:31N 39°41' E 000°37'1919.5
2015-Apr-18 04:33N 39°48' E 001°00'1919.5
2015-Apr-18 03:33N 39°58' E 001°22'2019.6
2015-Apr-18 02:33N 40°07' E 001°45'2019.6
2015-Apr-18 01:33N 40°16' E 002°07'2019.7
2015-Apr-18 00:33N 40°26' E 002°30'2019.2
2015-Apr-17 23:32N 40°36' E 002°52'1818.6
2015-Apr-17 22:33N 40°45' E 003°13'1717.2
2015-Apr-17 21:33N 40°53' E 003°33'1919.1
2015-Apr-17 20:33N 41°03' E 003°55'2319.1
2015-Apr-17 19:21N 41°14' E 004°21'1518.5
2015-Apr-17 18:33N 41°21' E 004°39'2119.3
2015-Apr-17 17:26N 41°31' E 005°04'1718.6
2015-Apr-17 16:32N 41°40' E 005°23'2718.7
2015-Apr-17 15:06N 41°53' E 005°54'14118.7
2015-Apr-17 07:33N 43°01' E 008°41'1918.7
2015-Apr-17 06:34N 43°11' E 009°03'1818.1
2015-Apr-17 05:33N 43°20' E 009°25'1818.0
2015-Apr-17 04:33N 43°28' E 009°47'1717.0
2015-Apr-17 03:33N 43°31' E 010°10'7 6.8
2015-Apr-17 02:33N 43°34' E 010°18'0 0.3
2015-Apr-17 01:33N 43°34' E 010°18'0 0.0
2015-Apr-17 00:33N 43°34' E 010°18'0 0.0
2015-Apr-16 23:33N 43°34' E 010°18'0 0.0
2015-Apr-16 22:33N 43°34' E 010°18'0 0.0
2015-Apr-16 21:33N 43°34' E 010°18'0 0.0
2015-Apr-16 20:33N 43°34' E 010°18'0 0.0
2015-Apr-16 19:33N 43°34' E 010°18'6 5.7
2015-Apr-16 18:33N 43°30' E 010°13'7 6.7
2015-Apr-16 17:33N 43°30' E 010°04'1515.2
2015-Apr-16 16:33N 43°41' E 009°50'1818.5
2015-Apr-16 15:33N 43°53' E 009°31'1818.2
2015-Apr-16 14:33N 44°04' E 009°10'1918.7
2015-Apr-16 13:33N 44°16' E 008°51'9 9.0
2015-Apr-16 12:32N 44°25' E 008°47'0 0.2
2015-Apr-16 11:31N 44°25' E 008°47'0 0.0
2015-Apr-16 10:31N 44°25' E 008°47'0 0.0
2015-Apr-16 09:31N 44°25' E 008°47'0 0.0
2015-Apr-16 08:16N 44°25' E 008°47'0 0.0
2015-Apr-16 07:25N 44°25' E 008°47'0 0.0
2015-Apr-16 06:31N 44°25' E 008°47'0 0.0
2015-Apr-16 05:31N 44°25' E 008°47'0 0.0
2015-Apr-16 04:31N 44°25' E 008°47'0 0.0
2015-Apr-16 03:31N 44°25' E 008°47'0 0.0
2015-Apr-16 02:31N 44°25' E 008°47'0 0.0
2015-Apr-16 01:32N 44°25' E 008°47'0 0.0
2015-Apr-16 00:33N 44°25' E 008°47'0 0.0
2015-Apr-15 23:33N 44°25' E 008°47'0 0.0
2015-Apr-15 22:33N 44°25' E 008°47'3 3.1
2015-Apr-15 21:33N 44°23' E 008°44'2 2.5
2015-Apr-15 20:33N 44°21' E 008°42'6 6.5
2015-Apr-15 19:33N 44°16' E 008°37'1717.4
2015-Apr-15 18:33N 44°01' E 008°24'1918.8
2015-Apr-15 17:33N 43°46' E 008°07'1919.0
2015-Apr-15 16:34N 43°34' E 007°47'1918.9
2015-Apr-15 15:33N 43°22' E 007°28'1818.2
2015-Apr-15 14:33N 43°10' E 007°08'1817.8
2015-Apr-15 13:34N 42°59' E 006°50'1717.5
2015-Apr-15 12:33N 42°50' E 006°29'1818.0
2015-Apr-15 11:33N 42°51' E 006°05'1616.3
2015-Apr-15 10:34N 42°55' E 005°44'1918.4
2015-Apr-15 09:33N 43°03' E 005°21'1717.1
2015-Apr-15 08:33N 43°12' E 005°01'1312.6
2015-Apr-15 07:33N 43°24' E 004°55'3 3.4
2015-Apr-15 06:33N 43°25' E 004°50'0 0.0
2015-Apr-15 05:33N 43°25' E 004°50'0 0.0
2015-Apr-15 04:33N 43°25' E 004°50'0 0.0
2015-Apr-15 03:33N 43°25' E 004°50'0 0.0
2015-Apr-15 02:30N 43°25' E 004°50'0 0.0
2015-Apr-15 01:33N 43°25' E 004°50'0 0.0
2015-Apr-15 00:33N 43°25' E 004°50'0 0.0
2015-Apr-14 23:33N 43°25' E 004°50'0 0.0
2015-Apr-14 22:33N 43°25' E 004°50'0 0.0
2015-Apr-14 21:34N 43°25' E 004°50'0 0.0
2015-Apr-14 20:33N 43°25' E 004°50'0 0.0
2015-Apr-14 19:33N 43°25' E 004°50'0 0.0
2015-Apr-14 18:33N 43°25' E 004°50'0 0.4
2015-Apr-14 17:33N 43°25' E 004°51'8 8.0
2015-Apr-14 16:33N 43°20' E 004°59'1010.0
2015-Apr-14 15:33N 43°10' E 005°03'1716.4
2015-Apr-14 14:30N 42°54' E 005°12'1919.5
2015-Apr-14 13:30N 42°37' E 005°26'1919.5
2015-Apr-14 12:33N 42°21' E 005°38'2019.4
2015-Apr-14 11:32N 42°04' E 005°51'2319.4
2015-Apr-14 10:20N 41°43' E 006°06'1418.7
2015-Apr-14 09:33N 41°31' E 006°15'1919.4
2015-Apr-14 08:33N 41°13' E 006°27'1919.4
2015-Apr-14 07:33N 40°56' E 006°39'1919.3
2015-Apr-14 06:33N 40°39' E 006°51'2019.3
2015-Apr-14 05:31N 40°22' E 007°03'1919.4
2015-Apr-14 04:33N 40°05' E 007°15'2319.3
2015-Apr-14 03:21N 39°44' E 007°29'5419.3
2015-Apr-14 00:33N 38°57' E 008°01'8125.7
2015-Apr-13 21:24N 38°06' E 009°22'18717.2
2015-Apr-13 10:30N 36°48' E 012°57'1818.9
2015-Apr-13 09:33N 36°44' E 013°18'2318.8
2015-Apr-13 08:19N 36°37' E 013°46'1419.1
2015-Apr-13 07:33N 36°33' E 014°04'1918.9
2015-Apr-13 06:33N 36°28' E 014°26'44613.5
2015-Apr-11 21:22N 37°14' E 023°41'1315.8
2015-Apr-11 20:33N 37°26' E 023°42'1615.8
2015-Apr-11 19:34N 37°42' E 023°40'1414.3
2015-Apr-11 18:34N 37°56' E 023°36'1 1.3
2015-Apr-11 17:25N 37°57' E 023°36'0 0.0
2015-Apr-11 16:31N 37°57' E 023°36'0 0.0
2015-Apr-11 15:31N 37°57' E 023°36'0 0.0
2015-Apr-11 14:31N 37°57' E 023°36'0 0.0
2015-Apr-11 13:31N 37°57' E 023°36'0 0.0
2015-Apr-11 12:25N 37°57' E 023°36'0 0.0
2015-Apr-11 11:31N 37°57' E 023°36'0 0.0
2015-Apr-11 10:31N 37°57' E 023°36'0 0.0
2015-Apr-11 09:31N 37°57' E 023°36'0 0.0
2015-Apr-11 08:31N 37°57' E 023°36'0 0.0
2015-Apr-11 07:31N 37°57' E 023°36'0 0.0
2015-Apr-11 06:31N 37°57' E 023°36'0 0.0
2015-Apr-11 05:31N 37°57' E 023°36'0 0.0
2015-Apr-11 04:31N 37°57' E 023°36'0 0.0
2015-Apr-11 03:31N 37°57' E 023°36'0 0.0
2015-Apr-11 02:31N 37°57' E 023°36'0 0.0
2015-Apr-11 01:31N 37°57' E 023°36'0 0.0
2015-Apr-11 00:31N 37°57' E 023°36'0 0.0
2015-Apr-10 23:31N 37°57' E 023°36'0 0.0
2015-Apr-10 22:31N 37°57' E 023°36'0 0.0
2015-Apr-10 21:31N 37°57' E 023°36'  

Dump ship's entire track history